HAAB/ADD METAR and TAF weather

Enter ICAO airport designator
Station Type Date Time Source
HAAB METAR 2021/09/16 11:00 UTC NOAA

HAAB 161100Z 15010KT 9999 BKN025 22/12 Q1024 NOSIG


Station Type Date Time Source
HAAB Decoded METAR 2021/09/16 11:00 UTC NOAA

Addis Ababa, Ethiopia (HAAB) 08-59N 038-48E 2324M
Sep 16, 2021 - 07:00 AM EDT / 2021.09.16 1100 UTC
Wind: from the SSE (150 degrees) at 12 MPH (10 KT):0
Visibility: greater than 7 mile(s):0
Sky conditions: mostly cloudy
Temperature: 71 F (22 C)
Dew Point: 53 F (12 C)
Relative Humidity: 53%
Pressure (altimeter): 30.24 in. Hg (1024 hPa)
ob: HAAB 161100Z 15010KT 9999 BKN025 22/12 Q1024 NOSIG
cycle: 11

Station Type Date Time Source
HAAB TAF 2021/09/16 12:20 UTC NOAA

TAF HAAB 160930Z 1612/1718 30008KT 9999 SCT025 BKN080
BECMG 1612/1615 16010KT 8000 -RA/BR BKN025
BECMG 1616/1619 32008KT 9000 -RA BKN028

Example: see airport list